createdAt,value
2018-12-16T00:01:04.894Z,-2.60
2018-12-16T00:03:33.052Z,-2.60
2018-12-16T00:06:01.227Z,-2.60
2018-12-16T00:08:29.381Z,-2.50
2018-12-16T00:10:57.675Z,-2.60
2018-12-16T00:13:25.832Z,-2.50
2018-12-16T00:15:54.003Z,-2.50
2018-12-16T00:18:22.158Z,-2.60
2018-12-16T00:20:50.334Z,-2.60
2018-12-16T00:23:18.489Z,-2.50
2018-12-16T00:25:46.656Z,-2.50
2018-12-16T00:28:14.806Z,-2.50
2018-12-16T00:30:42.971Z,-2.50
2018-12-16T00:33:11.141Z,-2.30
2018-12-16T00:35:39.316Z,-2.40
2018-12-16T00:38:07.497Z,-2.30
2018-12-16T00:40:35.768Z,-2.40
2018-12-16T00:43:03.920Z,-2.30
2018-12-16T00:45:32.100Z,-2.20
2018-12-16T00:48:00.252Z,-2.20
2018-12-16T00:50:28.474Z,-2.20
2018-12-16T00:52:56.636Z,-2.30
2018-12-16T00:55:24.933Z,-2.10
2018-12-16T00:57:53.155Z,-2.30
2018-12-16T01:00:21.436Z,-2.30
2018-12-16T01:02:49.591Z,-2.20
2018-12-16T01:05:17.770Z,-2.10
2018-12-16T01:07:45.919Z,-1.90
2018-12-16T01:10:14.097Z,-1.80
2018-12-16T01:12:42.251Z,-1.90
2018-12-16T01:15:10.426Z,-1.70
2018-12-16T01:17:38.575Z,-1.70
2018-12-16T01:20:07.100Z,-1.90
2018-12-16T01:22:35.253Z,-1.90
2018-12-16T01:25:03.867Z,-1.80
2018-12-16T01:27:32.028Z,-1.80
2018-12-16T01:30:00.280Z,-1.80
2018-12-16T01:32:28.438Z,-2.00
2018-12-16T01:34:56.601Z,-2.10
2018-12-16T01:37:24.781Z,-2.00
2018-12-16T01:39:52.944Z,-2.20
2018-12-16T01:42:21.116Z,-2.10
2018-12-16T01:44:49.344Z,-2.00
2018-12-16T01:47:17.515Z,-1.90
2018-12-16T01:49:45.671Z,-1.70
2018-12-16T01:52:13.956Z,-1.80
2018-12-16T01:54:42.111Z,-1.80
2018-12-16T01:57:10.287Z,-1.70
2018-12-16T01:59:38.567Z,-1.80
2018-12-16T02:02:06.887Z,-1.90
2018-12-16T02:04:35.042Z,-1.90
2018-12-16T02:07:03.229Z,-1.70
2018-12-16T02:09:31.379Z,-1.50
2018-12-16T02:11:59.571Z,-1.80
2018-12-16T02:14:27.794Z,-1.70
2018-12-16T02:16:56.044Z,-1.60
2018-12-16T02:19:24.245Z,-1.70
2018-12-16T02:21:52.412Z,-1.70
2018-12-16T02:24:20.572Z,-1.60
2018-12-16T02:26:48.740Z,-1.80
2018-12-16T02:29:16.995Z,-1.50
2018-12-16T02:31:45.171Z,-1.30
2018-12-16T02:34:13.317Z,-1.40
2018-12-16T02:36:41.487Z,-1.30
2018-12-16T02:39:12.807Z,-1.20
2018-12-16T02:41:40.988Z,-1.30
2018-12-16T02:44:09.164Z,-1.20
2018-12-16T02:46:37.350Z,-1.30
2018-12-16T02:49:05.493Z,-1.30
2018-12-16T02:51:33.669Z,-1.50
2018-12-16T02:54:01.830Z,-1.50
2018-12-16T02:56:30.008Z,-1.80
2018-12-16T02:58:58.293Z,-1.90
2018-12-16T03:01:26.463Z,-1.80
2018-12-16T03:03:54.623Z,-1.70
2018-12-16T03:06:22.809Z,-1.50
2018-12-16T03:08:51.148Z,-1.40
2018-12-16T03:11:19.324Z,-1.40
2018-12-16T03:13:47.485Z,-1.40
2018-12-16T03:16:15.661Z,-1.30
2018-12-16T03:18:43.810Z,-1.60
2018-12-16T03:21:11.985Z,-1.80
2018-12-16T03:23:40.148Z,-2.00
2018-12-16T03:26:08.327Z,-2.00
2018-12-16T03:28:36.476Z,-2.00
2018-12-16T03:31:04.745Z,-2.00
2018-12-16T03:33:33.014Z,-2.10
2018-12-16T03:36:01.193Z,-2.10
2018-12-16T03:38:29.387Z,-2.00
2018-12-16T03:40:57.567Z,-2.00
2018-12-16T03:43:25.723Z,-1.90
2018-12-16T03:45:53.941Z,-1.60
2018-12-16T03:48:22.400Z,-1.50
2018-12-16T03:50:52.416Z,-1.50
2018-12-16T03:53:20.578Z,-1.60
2018-12-16T03:55:48.722Z,-1.50
2018-12-16T03:58:16.908Z,-1.40
2018-12-16T04:00:45.059Z,-1.40
2018-12-16T04:03:13.231Z,-1.50
2018-12-16T04:05:41.552Z,-1.50
2018-12-16T04:08:09.987Z,-1.60
2018-12-16T04:10:38.284Z,-1.70
2018-12-16T04:13:06.455Z,-1.80
2018-12-16T04:15:34.692Z,-1.60
2018-12-16T04:18:03.028Z,-1.70
2018-12-16T04:20:31.193Z,-1.60
2018-12-16T04:22:59.368Z,-1.50
2018-12-16T04:25:27.600Z,-1.60
2018-12-16T04:27:55.785Z,-1.70
2018-12-16T04:30:23.932Z,-1.70
2018-12-16T04:32:52.103Z,-1.70
2018-12-16T04:35:20.256Z,-1.80
2018-12-16T04:37:48.535Z,-1.90
2018-12-16T04:40:16.693Z,-1.70
2018-12-16T04:42:44.859Z,-1.80
2018-12-16T04:45:13.289Z,-1.80
2018-12-16T04:47:41.724Z,-1.70
2018-12-16T04:50:09.931Z,-1.70
2018-12-16T04:52:38.108Z,-1.50
2018-12-16T04:55:06.348Z,-1.70
2018-12-16T04:57:34.522Z,-1.50
2018-12-16T05:00:03.823Z,-1.50
2018-12-16T05:02:31.988Z,-1.30
2018-12-16T05:05:00.143Z,-1.20
2018-12-16T05:07:28.347Z,-1.20
2018-12-16T05:10:00.435Z,-1.20
2018-12-16T05:12:28.611Z,-1.30
2018-12-16T05:14:56.761Z,-1.40
2018-12-16T05:17:24.959Z,-1.40
2018-12-16T05:19:53.111Z,-1.40
2018-12-16T05:22:21.263Z,-1.50
2018-12-16T05:24:49.444Z,-1.60
2018-12-16T05:27:17.751Z,-1.50
2018-12-16T05:29:46.252Z,-1.40
2018-12-16T05:32:14.407Z,-1.50
2018-12-16T05:34:42.587Z,-1.50
2018-12-16T05:37:10.847Z,-1.30
2018-12-16T05:39:39.097Z,-1.40
2018-12-16T05:42:07.248Z,-1.20
2018-12-16T05:44:35.416Z,-1.00
2018-12-16T05:47:03.761Z,-1.00
2018-12-16T05:49:31.932Z,-1.00
2018-12-16T05:52:00.080Z,-1.10
2018-12-16T05:54:28.248Z,-1.40
2018-12-16T05:56:56.443Z,-1.30
2018-12-16T05:59:24.634Z,-1.30
2018-12-16T06:01:52.780Z,-1.00
2018-12-16T06:04:20.956Z,-0.90
2018-12-16T06:06:49.113Z,-0.90
2018-12-16T06:09:17.283Z,-1.10
2018-12-16T06:11:45.440Z,-1.00
2018-12-16T06:14:13.615Z,-0.90
2018-12-16T06:16:41.932Z,-0.90
2018-12-16T06:19:10.104Z,-0.80
2018-12-16T06:21:38.256Z,-1.00
2018-12-16T06:24:06.440Z,-1.00
2018-12-16T06:26:34.615Z,-0.80
2018-12-16T06:29:02.805Z,-0.70
2018-12-16T06:31:30.968Z,-0.60
2018-12-16T06:33:59.147Z,-0.60
2018-12-16T06:36:27.366Z,-0.40
2018-12-16T06:38:55.660Z,-0.20
2018-12-16T06:41:23.832Z,-0.70
2018-12-16T06:43:52.012Z,-0.90
2018-12-16T06:46:20.163Z,-0.70
2018-12-16T06:48:48.342Z,-0.50
2018-12-16T06:51:16.500Z,-0.70
2018-12-16T06:53:44.680Z,-0.70
2018-12-16T06:56:13.010Z,-0.70
2018-12-16T06:58:41.221Z,-0.70
2018-12-16T07:01:09.374Z,-0.50
2018-12-16T07:03:37.531Z,-0.90
2018-12-16T07:06:05.711Z,-0.90
2018-12-16T07:08:33.883Z,-0.80
2018-12-16T07:11:02.056Z,-1.00
2018-12-16T07:13:30.207Z,-1.00
2018-12-16T07:15:58.385Z,-0.90
2018-12-16T07:18:26.543Z,-0.60
2018-12-16T07:20:54.765Z,-0.80
2018-12-16T07:23:22.998Z,-1.00
2018-12-16T07:25:51.348Z,-0.80
2018-12-16T07:28:19.502Z,-0.90
2018-12-16T07:30:47.668Z,-1.10
2018-12-16T07:33:16.995Z,-1.00
2018-12-16T07:35:45.291Z,-1.00
2018-12-16T07:38:13.531Z,-0.90
2018-12-16T07:40:41.699Z,-1.00
2018-12-16T07:43:10.684Z,-0.90
2018-12-16T07:45:38.880Z,-0.80
2018-12-16T07:48:07.025Z,-0.90
2018-12-16T07:50:35.209Z,-0.90
2018-12-16T07:53:03.589Z,-1.00
2018-12-16T07:55:31.922Z,-0.80
2018-12-16T07:58:00.066Z,-0.80
2018-12-16T08:00:28.240Z,-0.70
2018-12-16T08:02:56.396Z,-0.60
2018-12-16T08:05:24.856Z,-0.40
2018-12-16T08:07:53.021Z,-0.30
2018-12-16T08:10:21.196Z,-0.30
2018-12-16T08:12:49.349Z,-0.40
2018-12-16T08:15:17.526Z,-0.20
2018-12-16T08:17:45.696Z,-0.30
2018-12-16T08:20:13.863Z,-0.30
2018-12-16T08:22:42.035Z,-0.30
2018-12-16T08:25:10.207Z,-0.40
2018-12-16T08:27:38.359Z,-0.20
2018-12-16T08:30:07.075Z,-0.20
2018-12-16T08:32:35.228Z,-0.10
2018-12-16T08:35:04.040Z,-0.20
2018-12-16T08:37:32.199Z,-0.40
2018-12-16T08:40:00.384Z,-0.30
2018-12-16T08:42:28.535Z,-0.20
2018-12-16T08:44:56.900Z,-0.40
2018-12-16T08:47:25.050Z,-0.30
2018-12-16T08:49:53.218Z,-0.30
2018-12-16T08:52:21.451Z,-0.10
2018-12-16T08:54:49.643Z,-0.20
2018-12-16T08:57:17.791Z,-0.40
2018-12-16T08:59:45.975Z,-0.30
2018-12-16T09:02:14.127Z,-0.30
2018-12-16T09:04:42.583Z,-0.10
2018-12-16T09:07:10.768Z,-0.30
2018-12-16T09:09:39.207Z,-0.30
2018-12-16T09:12:07.355Z,-0.20
2018-12-16T09:14:35.598Z,-0.20
2018-12-16T09:17:03.754Z,-0.20
2018-12-16T09:19:31.970Z,-0.40
2018-12-16T09:22:00.120Z,-0.30
2018-12-16T09:24:28.267Z,-0.30
2018-12-16T09:26:56.435Z,-0.10
2018-12-16T09:29:24.579Z,0.10
2018-12-16T09:31:52.756Z,0.00
2018-12-16T09:34:20.922Z,-0.10
2018-12-16T09:36:49.101Z,-0.10
2018-12-16T09:39:17.324Z,0.20
2018-12-16T09:41:45.497Z,0.50
2018-12-16T09:44:13.760Z,0.30
2018-12-16T09:46:41.936Z,0.30
2018-12-16T09:49:10.106Z,0.10
2018-12-16T09:51:38.276Z,0.20
2018-12-16T09:54:06.471Z,0.40
2018-12-16T09:56:34.639Z,0.40
2018-12-16T09:59:02.779Z,0.30
2018-12-16T10:01:30.951Z,0.30
2018-12-16T10:03:59.095Z,0.30
2018-12-16T10:06:27.275Z,0.40
2018-12-16T10:08:55.427Z,0.50
2018-12-16T10:11:23.688Z,0.60
2018-12-16T10:13:51.976Z,0.60
2018-12-16T10:16:20.156Z,1.10
2018-12-16T10:18:48.300Z,0.90
2018-12-16T10:21:16.521Z,1.10
2018-12-16T10:23:44.792Z,0.80
2018-12-16T10:26:12.971Z,0.90
2018-12-16T10:28:41.116Z,1.00
2018-12-16T10:31:09.284Z,1.10
2018-12-16T10:33:37.440Z,1.10
2018-12-16T10:36:05.751Z,1.20
2018-12-16T10:38:33.899Z,1.00
2018-12-16T10:41:02.072Z,1.00
2018-12-16T10:43:30.255Z,1.00
2018-12-16T10:45:58.430Z,1.20
2018-12-16T10:48:26.582Z,1.00
2018-12-16T10:50:54.747Z,1.00
2018-12-16T10:53:23.047Z,1.00
2018-12-16T10:55:51.621Z,1.10
2018-12-16T10:58:19.823Z,1.10
2018-12-16T11:00:54.190Z,1.00
2018-12-16T11:03:22.483Z,1.00
2018-12-16T11:05:50.646Z,1.20
2018-12-16T11:08:19.313Z,1.50
2018-12-16T11:10:47.475Z,1.50
2018-12-16T11:13:15.804Z,1.40
2018-12-16T11:15:43.963Z,1.60
2018-12-16T11:18:12.543Z,1.80
2018-12-16T11:20:40.706Z,1.90
2018-12-16T11:23:08.860Z,2.20
2018-12-16T11:25:37.269Z,2.00
2018-12-16T11:28:05.954Z,2.10
2018-12-16T11:30:34.148Z,2.10
2018-12-16T11:33:02.411Z,2.00
2018-12-16T11:35:30.563Z,2.10
2018-12-16T11:37:59.785Z,2.20
2018-12-16T11:40:28.013Z,2.20
2018-12-16T11:42:56.180Z,2.10
2018-12-16T11:45:24.515Z,2.30
2018-12-16T11:47:53.488Z,2.40
2018-12-16T11:50:23.504Z,2.60
2018-12-16T11:52:51.739Z,2.70
2018-12-16T11:55:19.891Z,2.70
2018-12-16T11:57:48.051Z,2.60
2018-12-16T12:00:16.202Z,2.60
2018-12-16T12:02:44.397Z,2.60
2018-12-16T12:05:12.612Z,2.80
2018-12-16T12:07:40.777Z,2.90
2018-12-16T12:10:09.000Z,2.90
2018-12-16T12:12:37.205Z,2.80
2018-12-16T12:15:05.604Z,2.90
2018-12-16T12:17:33.767Z,2.80
2018-12-16T12:20:01.923Z,2.70
2018-12-16T12:22:30.199Z,2.60
2018-12-16T12:24:58.344Z,2.70
2018-12-16T12:27:26.512Z,2.90
2018-12-16T12:29:54.655Z,3.00
2018-12-16T12:32:22.899Z,3.10
2018-12-16T12:34:51.047Z,3.20
2018-12-16T12:37:19.224Z,3.20
2018-12-16T12:39:47.798Z,3.20
2018-12-16T12:42:15.972Z,3.20
2018-12-16T12:44:44.128Z,3.40
2018-12-16T12:47:12.291Z,3.50
2018-12-16T12:49:45.007Z,3.60
2018-12-16T12:52:11.575Z,3.60
2018-12-16T12:54:39.723Z,3.60
2018-12-16T12:57:07.892Z,3.60
2018-12-16T12:59:36.041Z,3.60
2018-12-16T13:02:04.440Z,3.70
2018-12-16T13:04:32.656Z,3.80
2018-12-16T13:07:00.842Z,3.80
2018-12-16T13:09:28.984Z,3.80
2018-12-16T13:11:57.297Z,3.90
2018-12-16T13:14:25.448Z,3.80
2018-12-16T13:16:53.669Z,4.00
2018-12-16T13:19:21.931Z,4.10
2018-12-16T13:21:50.108Z,4.40
2018-12-16T13:24:18.622Z,4.50
2018-12-16T13:26:47.204Z,4.60
2018-12-16T13:29:15.581Z,4.60
2018-12-16T13:31:44.032Z,4.70
2018-12-16T13:34:12.438Z,4.70
2018-12-16T13:36:40.651Z,4.60
2018-12-16T13:39:09.599Z,4.70
2018-12-16T13:41:40.869Z,4.50
2018-12-16T13:44:09.039Z,4.20
2018-12-16T13:46:37.235Z,4.10
2018-12-16T13:49:05.674Z,4.00
2018-12-16T13:51:33.855Z,4.20
2018-12-16T13:54:02.011Z,4.40
2018-12-16T13:56:30.155Z,4.60
2018-12-16T13:58:58.412Z,4.60
2018-12-16T14:01:26.568Z,4.60
2018-12-16T14:03:55.016Z,4.70
2018-12-16T14:06:23.392Z,4.60
2018-12-16T14:08:51.587Z,4.60
2018-12-16T14:11:19.853Z,4.30
2018-12-16T14:13:48.134Z,4.20
2018-12-16T14:16:16.696Z,4.00
2018-12-16T14:18:45.483Z,3.90
2018-12-16T14:21:14.270Z,3.70
2018-12-16T14:23:42.563Z,3.90
2018-12-16T14:26:11.819Z,3.80
2018-12-16T14:28:40.640Z,3.80
2018-12-16T14:31:09.376Z,3.70
2018-12-16T14:33:38.310Z,3.60
2018-12-16T14:36:07.004Z,3.60
2018-12-16T14:38:35.463Z,3.70
2018-12-16T14:41:03.763Z,3.70
2018-12-16T14:43:31.935Z,3.70
2018-12-16T14:46:00.083Z,3.60
2018-12-16T14:48:28.259Z,3.60
2018-12-16T14:50:57.564Z,3.60
2018-12-16T14:53:25.775Z,3.60
2018-12-16T14:55:55.398Z,3.50
2018-12-16T14:58:24.232Z,3.50
2018-12-16T15:00:52.815Z,3.50
2018-12-16T15:03:21.148Z,3.40
2018-12-16T15:05:49.373Z,3.30
2018-12-16T15:08:17.563Z,3.20
2018-12-16T15:10:46.076Z,3.20
2018-12-16T15:13:14.256Z,3.10
2018-12-16T15:15:42.670Z,3.30
2018-12-16T15:18:11.254Z,3.10
2018-12-16T15:20:39.695Z,3.00
2018-12-16T15:23:07.830Z,3.00
2018-12-16T15:25:36.001Z,3.00
2018-12-16T15:28:04.152Z,2.90
2018-12-16T15:30:33.961Z,2.90
2018-12-16T15:33:02.235Z,2.70
2018-12-16T15:35:30.390Z,2.60
2018-12-16T15:37:58.539Z,2.80
2018-12-16T15:40:26.712Z,2.80
2018-12-16T15:42:54.938Z,2.70
2018-12-16T15:45:23.135Z,2.60
2018-12-16T15:47:52.071Z,2.60
2018-12-16T15:50:20.320Z,2.40
2018-12-16T15:52:48.496Z,2.30
2018-12-16T15:55:16.674Z,2.40
2018-12-16T15:57:44.820Z,2.30
2018-12-16T16:00:13.576Z,2.20
2018-12-16T16:02:41.786Z,2.20
2018-12-16T16:05:10.339Z,2.10
2018-12-16T16:07:38.893Z,2.10
2018-12-16T16:10:08.396Z,2.10
2018-12-16T16:12:36.556Z,2.10
2018-12-16T16:15:05.659Z,2.00
2018-12-16T16:17:33.807Z,2.00
2018-12-16T16:20:02.345Z,1.70
2018-12-16T16:22:30.562Z,1.60
2018-12-16T16:24:58.733Z,1.70
2018-12-16T16:27:26.971Z,1.70
2018-12-16T16:29:55.317Z,1.70
2018-12-16T16:32:23.459Z,1.60
2018-12-16T16:34:51.641Z,1.60
2018-12-16T16:37:19.792Z,1.60
2018-12-16T16:39:50.604Z,1.40
2018-12-16T16:42:18.811Z,1.30
2018-12-16T16:44:47.056Z,1.30
2018-12-16T16:47:15.204Z,1.60
2018-12-16T16:49:43.368Z,1.70
2018-12-16T16:52:11.546Z,1.80
2018-12-16T16:54:39.716Z,1.80
2018-12-16T16:57:07.853Z,1.70
2018-12-16T16:59:36.127Z,1.70
2018-12-16T17:02:04.831Z,1.90
2018-12-16T17:04:33.140Z,1.90
2018-12-16T17:07:02.160Z,1.80
2018-12-16T17:09:30.410Z,1.80
2018-12-16T17:11:58.568Z,1.90
2018-12-16T17:14:26.719Z,2.00
2018-12-16T17:16:54.892Z,2.10
2018-12-16T17:19:23.108Z,2.10
2018-12-16T17:21:51.546Z,2.10
2018-12-16T17:24:19.699Z,2.00
2018-12-16T17:26:47.874Z,2.00
2018-12-16T17:29:16.108Z,2.00
2018-12-16T17:31:44.329Z,1.90
2018-12-16T17:34:12.538Z,1.80
2018-12-16T17:36:40.754Z,1.80
2018-12-16T17:39:09.184Z,1.80
2018-12-16T17:41:37.360Z,1.70
2018-12-16T17:44:06.505Z,1.70
2018-12-16T17:46:34.658Z,1.70
2018-12-16T17:49:02.817Z,1.70
2018-12-16T17:51:31.176Z,1.60
2018-12-16T17:53:59.339Z,1.50
2018-12-16T17:56:27.504Z,1.50
2018-12-16T17:58:55.655Z,1.70
2018-12-16T18:01:23.848Z,1.70
2018-12-16T18:03:51.999Z,1.60
2018-12-16T18:06:20.248Z,1.70
2018-12-16T18:08:48.460Z,1.70
2018-12-16T18:11:16.724Z,1.70
2018-12-16T18:13:45.201Z,1.60
2018-12-16T18:16:13.909Z,1.60
2018-12-16T18:18:42.774Z,1.70
2018-12-16T18:21:11.057Z,1.70
2018-12-16T18:23:39.248Z,1.70
2018-12-16T18:26:07.422Z,1.60
2018-12-16T18:28:35.841Z,1.50
2018-12-16T18:31:04.667Z,1.60
2018-12-16T18:33:33.875Z,1.60
2018-12-16T18:36:02.754Z,1.50
2018-12-16T18:38:31.411Z,1.40
2018-12-16T18:40:59.919Z,1.50
2018-12-16T18:43:28.501Z,1.70
2018-12-16T18:45:57.186Z,1.80
2018-12-16T18:48:25.675Z,1.80
2018-12-16T18:50:53.877Z,1.50
2018-12-16T18:53:22.066Z,1.40
2018-12-16T18:55:50.488Z,1.50
2018-12-16T18:58:18.712Z,1.60
2018-12-16T19:00:46.943Z,1.70
2018-12-16T19:03:15.089Z,1.70
2018-12-16T19:05:43.259Z,1.70
2018-12-16T19:08:11.762Z,1.80
2018-12-16T19:10:39.955Z,1.80
2018-12-16T19:13:08.296Z,1.70
2018-12-16T19:15:36.447Z,1.80
2018-12-16T19:18:04.759Z,1.70
2018-12-16T19:20:33.195Z,1.80
2018-12-16T19:23:01.383Z,1.80
2018-12-16T19:25:29.530Z,1.70
2018-12-16T19:27:57.790Z,1.70
2018-12-16T19:30:25.947Z,1.80
2018-12-16T19:32:54.436Z,1.60
2018-12-16T19:35:22.598Z,1.70
2018-12-16T19:37:50.760Z,1.70
2018-12-16T19:40:18.911Z,1.90
2018-12-16T19:42:47.105Z,1.90
2018-12-16T19:45:15.483Z,1.90
2018-12-16T19:47:49.505Z,2.00
2018-12-16T19:50:14.303Z,2.00
2018-12-16T19:52:42.479Z,2.10
2018-12-16T19:55:10.628Z,2.20
2018-12-16T19:57:38.831Z,2.20
2018-12-16T20:00:08.198Z,2.20
2018-12-16T20:02:36.464Z,2.10
2018-12-16T20:05:07.792Z,1.90
2018-12-16T20:07:36.227Z,1.90
2018-12-16T20:10:05.476Z,1.90
2018-12-16T20:12:33.650Z,2.00
2018-12-16T20:15:01.792Z,2.00
2018-12-16T20:17:29.964Z,2.10
2018-12-16T20:19:58.119Z,2.10
2018-12-16T20:22:26.290Z,2.10
2018-12-16T20:24:54.445Z,2.00
2018-12-16T20:27:23.135Z,2.10
2018-12-16T20:29:51.331Z,2.10
2018-12-16T20:32:19.536Z,2.00
2018-12-16T20:34:47.853Z,2.10
2018-12-16T20:37:16.438Z,2.10
2018-12-16T20:39:46.041Z,2.10
2018-12-16T20:42:14.341Z,2.10
2018-12-16T20:44:42.492Z,2.20
2018-12-16T20:47:11.072Z,2.10
2018-12-16T20:49:40.164Z,2.20
2018-12-16T20:52:08.646Z,2.30
2018-12-16T20:54:36.847Z,2.30
2018-12-16T20:57:05.271Z,2.40
2018-12-16T20:59:33.439Z,2.30
2018-12-16T21:02:01.950Z,2.30
2018-12-16T21:04:30.534Z,2.30
2018-12-16T21:06:59.424Z,2.30
2018-12-16T21:09:27.619Z,2.20
2018-12-16T21:12:01.059Z,2.30
2018-12-16T21:14:34.898Z,2.40
2018-12-16T21:17:08.811Z,2.50
2018-12-16T21:19:37.039Z,2.40
2018-12-16T21:22:08.656Z,2.50
2018-12-16T21:24:36.899Z,2.40
2018-12-16T21:27:05.464Z,2.40
2018-12-16T21:29:33.611Z,2.60
2018-12-16T21:32:01.793Z,2.60
2018-12-16T21:34:29.935Z,2.50
2018-12-16T21:36:58.107Z,2.50
2018-12-16T21:39:26.257Z,2.60
2018-12-16T21:41:54.455Z,2.60
2018-12-16T21:44:22.596Z,2.60
2018-12-16T21:46:50.947Z,2.50
2018-12-16T21:49:19.160Z,2.50
2018-12-16T21:51:47.330Z,2.60
2018-12-16T21:54:15.505Z,2.60
2018-12-16T21:56:43.673Z,2.60
2018-12-16T21:59:11.831Z,2.50
2018-12-16T22:01:39.984Z,2.60
2018-12-16T22:04:08.152Z,2.60
2018-12-16T22:06:36.299Z,2.50
2018-12-16T22:09:06.320Z,2.40
2018-12-16T22:11:34.463Z,2.50
2018-12-16T22:14:02.713Z,2.50
2018-12-16T22:16:30.934Z,2.60
2018-12-16T22:18:59.108Z,2.60
2018-12-16T22:21:27.252Z,2.60
2018-12-16T22:23:55.420Z,2.60
2018-12-16T22:26:23.731Z,2.60
2018-12-16T22:28:51.910Z,2.50
2018-12-16T22:31:20.781Z,2.70
2018-12-16T22:33:48.951Z,2.60
2018-12-16T22:36:17.101Z,2.60
2018-12-16T22:38:45.300Z,2.50
2018-12-16T22:41:13.452Z,2.50
2018-12-16T22:43:41.991Z,2.50
2018-12-16T22:46:10.214Z,2.50
2018-12-16T22:48:38.378Z,2.50
2018-12-16T22:51:06.600Z,2.50
2018-12-16T22:53:34.770Z,2.50
2018-12-16T22:56:03.056Z,2.50
2018-12-16T22:58:31.222Z,2.40
2018-12-16T23:01:05.231Z,2.50
2018-12-16T23:03:33.405Z,2.50
2018-12-16T23:06:02.236Z,2.40
2018-12-16T23:08:30.406Z,2.40
2018-12-16T23:10:58.564Z,2.40
2018-12-16T23:13:26.736Z,2.30
2018-12-16T23:15:54.883Z,2.30
2018-12-16T23:18:23.055Z,2.30
2018-12-16T23:20:51.205Z,2.30
2018-12-16T23:23:19.396Z,2.20
2018-12-16T23:25:47.717Z,2.10
2018-12-16T23:28:16.241Z,2.20
2018-12-16T23:30:44.394Z,2.20
2018-12-16T23:33:12.551Z,2.30
2018-12-16T23:35:41.171Z,2.30
2018-12-16T23:38:09.343Z,2.30
2018-12-16T23:40:37.947Z,2.30
2018-12-16T23:43:06.226Z,2.30
2018-12-16T23:45:34.359Z,2.20
2018-12-16T23:48:02.539Z,2.20
2018-12-16T23:50:31.151Z,2.20
2018-12-16T23:52:59.330Z,2.10
2018-12-16T23:55:27.627Z,2.00
2018-12-16T23:58:01.053Z,2.10
